sensor_id;sensor_type;location;lat;lon;timestamp;P1;durP1;ratioP1;P2;durP2;ratioP2
15498;SDS011;7851;52.260;6.030;2022-11-18T00:02:50;5;;;2.7;;
15498;SDS011;7851;52.260;6.030;2022-11-18T00:02:50;8;;;3.4;;
15498;SDS011;7851;52.260;6.030;2022-11-18T00:02:50;5.1;;;2.7;;
15498;SDS011;7851;52.260;6.030;2022-11-18T00:03:26;7.9;;;3.2;;
15498;SDS011;7851;52.260;6.030;2022-11-18T00:04:26;4.2;;;3.3;;
15498;SDS011;7851;52.260;6.030;2022-11-18T00:05:26;3.1;;;2.8;;
15498;SDS011;7851;52.260;6.030;2022-11-18T00:06:27;5.6;;;3.2;;
15498;SDS011;7851;52.260;6.030;2022-11-18T00:07:26;4.9;;;2.8;;
15498;SDS011;7851;52.260;6.030;2022-11-18T00:08:26;4;;;2.5;;
15498;SDS011;7851;52.260;6.030;2022-11-18T00:09:29;5.2;;;3.6;;
15498;SDS011;7851;52.260;6.030;2022-11-18T00:10:29;3.9;;;2.7;;
15498;SDS011;7851;52.260;6.030;2022-11-18T00:11:29;4.4;;;3.2;;
15498;SDS011;7851;52.260;6.030;2022-11-18T00:12:29;5.6;;;3;;
15498;SDS011;7851;52.260;6.030;2022-11-18T00:13:29;6.6;;;2.4;;
15498;SDS011;7851;52.260;6.030;2022-11-18T00:14:29;4.7;;;2.7;;
15498;SDS011;7851;52.260;6.030;2022-11-18T00:15:29;4.9;;;3.3;;
15498;SDS011;7851;52.260;6.030;2022-11-18T00:16:33;3.7;;;2.6;;
15498;SDS011;7851;52.260;6.030;2022-11-18T00:17:33;3.7;;;2.8;;
15498;SDS011;7851;52.260;6.030;2022-11-18T00:18:33;4.5;;;2.9;;
15498;SDS011;7851;52.260;6.030;2022-11-18T00:19:37;3.6;;;2.7;;
15498;SDS011;7851;52.260;6.030;2022-11-18T00:20:36;7.3;;;3.1;;
15498;SDS011;7851;52.260;6.030;2022-11-18T00:21:36;9.6;;;2.9;;
15498;SDS011;7851;52.260;6.030;2022-11-18T00:22:36;7.6;;;2.9;;
15498;SDS011;7851;52.260;6.030;2022-11-18T00:23:37;6.4;;;3.1;;
15498;SDS011;7851;52.260;6.030;2022-11-18T00:24:36;2.9;;;2.6;;
15498;SDS011;7851;52.260;6.030;2022-11-18T00:25:36;4;;;2.8;;
15498;SDS011;7851;52.260;6.030;2022-11-18T00:26:39;5.1;;;3.1;;
15498;SDS011;7851;52.260;6.030;2022-11-18T00:27:39;6;;;3;;
15498;SDS011;7851;52.260;6.030;2022-11-18T00:28:39;4.2;;;2.9;;
15498;SDS011;7851;52.260;6.030;2022-11-18T00:29:39;4;;;3.2;;
15498;SDS011;7851;52.260;6.030;2022-11-18T00:30:42;3.1;;;2.6;;
15498;SDS011;7851;52.260;6.030;2022-11-18T00:31:42;5.3;;;2.9;;
15498;SDS011;7851;52.260;6.030;2022-11-18T00:32:42;6;;;3.3;;
15498;SDS011;7851;52.260;6.030;2022-11-18T00:33:42;5.8;;;3;;
15498;SDS011;7851;52.260;6.030;2022-11-18T00:34:42;4.1;;;3.2;;
15498;SDS011;7851;52.260;6.030;2022-11-18T00:35:51;4.2;;;3.2;;
15498;SDS011;7851;52.260;6.030;2022-11-18T00:36:46;5.1;;;2.8;;
15498;SDS011;7851;52.260;6.030;2022-11-18T00:37:46;6.2;;;3.2;;
15498;SDS011;7851;52.260;6.030;2022-11-18T00:38:46;2.7;;;2.5;;
15498;SDS011;7851;52.260;6.030;2022-11-18T00:39:46;5.6;;;3.1;;
15498;SDS011;7851;52.260;6.030;2022-11-18T00:40:46;5.1;;;2.9;;
15498;SDS011;7851;52.260;6.030;2022-11-18T00:41:46;5.5;;;3;;
15498;SDS011;7851;52.260;6.030;2022-11-18T00:42:46;7.5;;;2.9;;
15498;SDS011;7851;52.260;6.030;2022-11-18T00:43:46;4.4;;;3.2;;
15498;SDS011;7851;52.260;6.030;2022-11-18T00:44:46;4.3;;;3.1;;
15498;SDS011;7851;52.260;6.030;2022-11-18T00:45:49;6.9;;;3.1;;
15498;SDS011;7851;52.260;6.030;2022-11-18T00:46:49;3.4;;;2.8;;
15498;SDS011;7851;52.260;6.030;2022-11-18T00:47:49;4.2;;;2.8;;
15498;SDS011;7851;52.260;6.030;2022-11-18T00:48:49;3.5;;;3.1;;
15498;SDS011;7851;52.260;6.030;2022-11-18T00:49:49;6.1;;;3;;
15498;SDS011;7851;52.260;6.030;2022-11-18T00:50:49;3.7;;;3.2;;
15498;SDS011;7851;52.260;6.030;2022-11-18T00:51:49;4.5;;;3.3;;
15498;SDS011;7851;52.260;6.030;2022-11-18T00:52:49;4.3;;;3.2;;
15498;SDS011;7851;52.260;6.030;2022-11-18T00:53:49;8.7;;;3.1;;
15498;SDS011;7851;52.260;6.030;2022-11-18T00:54:49;5.5;;;3.6;;
15498;SDS011;7851;52.260;6.030;2022-11-18T00:55:49;4.3;;;3.1;;
15498;SDS011;7851;52.260;6.030;2022-11-18T00:56:49;5.7;;;3.1;;
15498;SDS011;7851;52.260;6.030;2022-11-18T00:57:49;5.1;;;3;;
15498;SDS011;7851;52.260;6.030;2022-11-18T00:58:49;4.5;;;2.9;;
15498;SDS011;7851;52.260;6.030;2022-11-18T00:59:49;3.6;;;2.5;;
15498;SDS011;7851;52.260;6.030;2022-11-18T01:00:50;4;;;2.9;;
15498;SDS011;7851;52.260;6.030;2022-11-18T01:01:49;5.9;;;2.8;;
15498;SDS011;7851;52.260;6.030;2022-11-18T01:02:49;3.7;;;2.7;;
15498;SDS011;7851;52.260;6.030;2022-11-18T01:03:49;4.9;;;3;;
15498;SDS011;7851;52.260;6.030;2022-11-18T01:04:49;5.9;;;3.4;;
15498;SDS011;7851;52.260;6.030;2022-11-18T01:05:49;6;;;3.3;;
15498;SDS011;7851;52.260;6.030;2022-11-18T01:06:49;4.7;;;2.8;;
15498;SDS011;7851;52.260;6.030;2022-11-18T01:07:49;3.7;;;2.9;;
15498;SDS011;7851;52.260;6.030;2022-11-18T01:08:49;3.5;;;2.8;;
15498;SDS011;7851;52.260;6.030;2022-11-18T01:09:49;3.7;;;2.9;;
15498;SDS011;7851;52.260;6.030;2022-11-18T01:10:49;5.5;;;3;;
15498;SDS011;7851;52.260;6.030;2022-11-18T01:11:49;4;;;3.3;;
15498;SDS011;7851;52.260;6.030;2022-11-18T01:12:49;6.2;;;2.8;;
15498;SDS011;7851;52.260;6.030;2022-11-18T01:13:49;3.1;;;2.8;;
15498;SDS011;7851;52.260;6.030;2022-11-18T01:14:49;5.4;;;3;;
15498;SDS011;7851;52.260;6.030;2022-11-18T01:15:50;3.9;;;3.1;;
15498;SDS011;7851;52.260;6.030;2022-11-18T01:17:49;6.5;;;3.4;;
15498;SDS011;7851;52.260;6.030;2022-11-18T01:18:49;4.6;;;2.7;;
15498;SDS011;7851;52.260;6.030;2022-11-18T01:19:49;3.4;;;2.6;;
15498;SDS011;7851;52.260;6.030;2022-11-18T01:20:49;3.1;;;2.6;;
15498;SDS011;7851;52.260;6.030;2022-11-18T01:21:49;7;;;3.2;;
15498;SDS011;7851;52.260;6.030;2022-11-18T01:22:49;8.1;;;3.2;;
15498;SDS011;7851;52.260;6.030;2022-11-18T01:23:49;3.1;;;2.8;;
15498;SDS011;7851;52.260;6.030;2022-11-18T01:24:49;4.8;;;3.2;;
15498;SDS011;7851;52.260;6.030;2022-11-18T01:25:49;4.6;;;2.9;;
15498;SDS011;7851;52.260;6.030;2022-11-18T01:26:49;4.5;;;2.9;;
15498;SDS011;7851;52.260;6.030;2022-11-18T01:27:49;5.7;;;2.7;;
15498;SDS011;7851;52.260;6.030;2022-11-18T01:28:49;4.3;;;2.8;;
15498;SDS011;7851;52.260;6.030;2022-11-18T01:29:49;8.7;;;3.3;;
15498;SDS011;7851;52.260;6.030;2022-11-18T01:30:49;5.6;;;2.8;;
15498;SDS011;7851;52.260;6.030;2022-11-18T01:31:49;3.5;;;2.8;;
15498;SDS011;7851;52.260;6.030;2022-11-18T01:32:49;3.5;;;2.5;;
15498;SDS011;7851;52.260;6.030;2022-11-18T01:33:49;4.1;;;2.9;;
15498;SDS011;7851;52.260;6.030;2022-11-18T01:34:49;5.4;;;3;;
15498;SDS011;7851;52.260;6.030;2022-11-18T01:35:49;4.5;;;3.2;;
15498;SDS011;7851;52.260;6.030;2022-11-18T01:36:50;6.1;;;2.9;;
15498;SDS011;7851;52.260;6.030;2022-11-18T01:37:49;3.5;;;3;;
15498;SDS011;7851;52.260;6.030;2022-11-18T01:38:49;3.2;;;2.9;;
15498;SDS011;7851;52.260;6.030;2022-11-18T01:39:49;5.8;;;3.3;;
15498;SDS011;7851;52.260;6.030;2022-11-18T01:40:49;6;;;3.1;;
15498;SDS011;7851;52.260;6.030;2022-11-18T01:41:49;5.5;;;3.2;;
15498;SDS011;7851;52.260;6.030;2022-11-18T01:42:49;5.7;;;3.5;;
15498;SDS011;7851;52.260;6.030;2022-11-18T01:43:50;4.6;;;3.4;;
15498;SDS011;7851;52.260;6.030;2022-11-18T01:44:55;7.4;;;3.4;;
15498;SDS011;7851;52.260;6.030;2022-11-18T01:45:49;7.1;;;3.1;;
15498;SDS011;7851;52.260;6.030;2022-11-18T01:46:49;3.4;;;2.9;;
15498;SDS011;7851;52.260;6.030;2022-11-18T01:47:50;4;;;3;;
15498;SDS011;7851;52.260;6.030;2022-11-18T01:48:50;3.3;;;2.9;;
15498;SDS011;7851;52.260;6.030;2022-11-18T01:49:49;3.9;;;3.1;;
15498;SDS011;7851;52.260;6.030;2022-11-18T01:50:50;3.2;;;2.9;;
15498;SDS011;7851;52.260;6.030;2022-11-18T01:51:50;3.7;;;2.7;;
15498;SDS011;7851;52.260;6.030;2022-11-18T01:52:49;6.7;;;3.3;;
15498;SDS011;7851;52.260;6.030;2022-11-18T01:53:50;7.4;;;3.6;;
15498;SDS011;7851;52.260;6.030;2022-11-18T01:54:51;3.4;;;2.8;;
15498;SDS011;7851;52.260;6.030;2022-11-18T01:55:49;5.2;;;3.2;;
15498;SDS011;7851;52.260;6.030;2022-11-18T01:56:50;4.5;;;3.3;;
15498;SDS011;7851;52.260;6.030;2022-11-18T01:57:49;4;;;3;;
15498;SDS011;7851;52.260;6.030;2022-11-18T01:58:50;4.4;;;3.1;;
15498;SDS011;7851;52.260;6.030;2022-11-18T01:59:49;5.3;;;3.6;;
15498;SDS011;7851;52.260;6.030;2022-11-18T02:00:49;4.7;;;3.1;;
15498;SDS011;7851;52.260;6.030;2022-11-18T02:01:49;5;;;3;;
15498;SDS011;7851;52.260;6.030;2022-11-18T02:02:49;3.5;;;3;;
15498;SDS011;7851;52.260;6.030;2022-11-18T02:03:51;6.4;;;3.1;;
15498;SDS011;7851;52.260;6.030;2022-11-18T02:04:49;3.3;;;3;;
15498;SDS011;7851;52.260;6.030;2022-11-18T02:05:49;4.5;;;2.8;;
15498;SDS011;7851;52.260;6.030;2022-11-18T02:06:49;4.3;;;3.1;;
15498;SDS011;7851;52.260;6.030;2022-11-18T02:07:49;4.9;;;3.1;;
15498;SDS011;7851;52.260;6.030;2022-11-18T02:08:49;3.4;;;3;;
15498;SDS011;7851;52.260;6.030;2022-11-18T02:09:49;5.5;;;3.3;;
15498;SDS011;7851;52.260;6.030;2022-11-18T02:10:49;4;;;3.3;;
15498;SDS011;7851;52.260;6.030;2022-11-18T02:11:49;4.7;;;3.2;;
15498;SDS011;7851;52.260;6.030;2022-11-18T02:12:50;3.5;;;2.7;;
15498;SDS011;7851;52.260;6.030;2022-11-18T02:13:49;5.5;;;3;;
15498;SDS011;7851;52.260;6.030;2022-11-18T02:14:49;6.8;;;3.2;;
15498;SDS011;7851;52.260;6.030;2022-11-18T02:15:51;4.1;;;3;;
15498;SDS011;7851;52.260;6.030;2022-11-18T02:16:54;3.6;;;3.1;;
15498;SDS011;7851;52.260;6.030;2022-11-18T02:17:51;6.1;;;3.4;;
15498;SDS011;7851;52.260;6.030;2022-11-18T02:18:51;3.9;;;3.2;;
15498;SDS011;7851;52.260;6.030;2022-11-18T02:20:50;5.9;;;3.3;;
15498;SDS011;7851;52.260;6.030;2022-11-18T02:21:51;4.7;;;3.6;;
15498;SDS011;7851;52.260;6.030;2022-11-18T02:23:10;3.3;;;3;;
15498;SDS011;7851;52.260;6.030;2022-11-18T02:23:57;3.3;;;3;;
15498;SDS011;7851;52.260;6.030;2022-11-18T02:24:50;4.4;;;3.3;;
15498;SDS011;7851;52.260;6.030;2022-11-18T02:25:53;5.9;;;3.2;;
15498;SDS011;7851;52.260;6.030;2022-11-18T02:26:53;4.6;;;3.3;;
15498;SDS011;7851;52.260;6.030;2022-11-18T02:27:57;3.7;;;3.2;;
15498;SDS011;7851;52.260;6.030;2022-11-18T02:28:53;5.4;;;3.6;;
15498;SDS011;7851;52.260;6.030;2022-11-18T02:29:50;5.7;;;3.3;;
15498;SDS011;7851;52.260;6.030;2022-11-18T02:30:51;3.9;;;3.5;;
15498;SDS011;7851;52.260;6.030;2022-11-18T02:31:51;5.7;;;3.7;;
15498;SDS011;7851;52.260;6.030;2022-11-18T02:32:51;6.9;;;3.5;;
15498;SDS011;7851;52.260;6.030;2022-11-18T02:33:50;5;;;3.7;;
15498;SDS011;7851;52.260;6.030;2022-11-18T02:34:50;4;;;3.4;;
15498;SDS011;7851;52.260;6.030;2022-11-18T02:35:51;4.4;;;3.4;;
15498;SDS011;7851;52.260;6.030;2022-11-18T02:36:50;4.9;;;3.6;;
15498;SDS011;7851;52.260;6.030;2022-11-18T02:37:49;4.2;;;3.6;;
15498;SDS011;7851;52.260;6.030;2022-11-18T02:38:51;4.7;;;3.4;;
15498;SDS011;7851;52.260;6.030;2022-11-18T02:39:50;6.3;;;3.6;;
15498;SDS011;7851;52.260;6.030;2022-11-18T02:40:50;6.1;;;3.3;;
15498;SDS011;7851;52.260;6.030;2022-11-18T02:41:49;3.4;;;3.1;;
15498;SDS011;7851;52.260;6.030;2022-11-18T02:42:49;4.6;;;3.3;;
15498;SDS011;7851;52.260;6.030;2022-11-18T02:43:50;7.3;;;3.4;;
15498;SDS011;7851;52.260;6.030;2022-11-18T02:44:50;5.3;;;3.4;;
15498;SDS011;7851;52.260;6.030;2022-11-18T02:45:49;6.4;;;3.4;;
15498;SDS011;7851;52.260;6.030;2022-11-18T02:46:51;4.6;;;3.8;;
15498;SDS011;7851;52.260;6.030;2022-11-18T02:47:49;7;;;3.3;;
15498;SDS011;7851;52.260;6.030;2022-11-18T02:48:49;4.5;;;3.3;;
15498;SDS011;7851;52.260;6.030;2022-11-18T02:49:51;4.6;;;3.5;;
15498;SDS011;7851;52.260;6.030;2022-11-18T02:50:49;4;;;3.3;;
15498;SDS011;7851;52.260;6.030;2022-11-18T02:51:49;5;;;3.7;;
15498;SDS011;7851;52.260;6.030;2022-11-18T02:52:50;7.7;;;3.7;;
15498;SDS011;7851;52.260;6.030;2022-11-18T02:53:49;6.3;;;3.9;;
15498;SDS011;7851;52.260;6.030;2022-11-18T02:54:49;6.6;;;3.4;;
15498;SDS011;7851;52.260;6.030;2022-11-18T02:55:49;7.9;;;3.5;;
15498;SDS011;7851;52.260;6.030;2022-11-18T02:56:49;3.9;;;3.3;;
15498;SDS011;7851;52.260;6.030;2022-11-18T02:57:49;5.7;;;3.5;;
15498;SDS011;7851;52.260;6.030;2022-11-18T02:58:49;4.4;;;3.4;;
15498;SDS011;7851;52.260;6.030;2022-11-18T02:59:49;5.4;;;3.5;;
15498;SDS011;7851;52.260;6.030;2022-11-18T03:00:51;8.5;;;3.7;;
15498;SDS011;7851;52.260;6.030;2022-11-18T03:01:49;7.9;;;3.3;;
15498;SDS011;7851;52.260;6.030;2022-11-18T03:02:49;3.4;;;3.1;;
15498;SDS011;7851;52.260;6.030;2022-11-18T03:03:49;3.5;;;3.1;;
15498;SDS011;7851;52.260;6.030;2022-11-18T03:04:50;5.3;;;3.4;;
15498;SDS011;7851;52.260;6.030;2022-11-18T03:05:51;4.5;;;3.2;;
15498;SDS011;7851;52.260;6.030;2022-11-18T03:06:50;4.5;;;3.2;;
15498;SDS011;7851;52.260;6.030;2022-11-18T03:07:50;9.5;;;3.4;;
15498;SDS011;7851;52.260;6.030;2022-11-18T03:08:51;5.4;;;3.3;;
15498;SDS011;7851;52.260;6.030;2022-11-18T03:09:49;5;;;3.6;;
15498;SDS011;7851;52.260;6.030;2022-11-18T03:10:51;4.4;;;3.3;;
15498;SDS011;7851;52.260;6.030;2022-11-18T03:11:50;7;;;3.4;;
15498;SDS011;7851;52.260;6.030;2022-11-18T03:12:51;8;;;3.4;;
15498;SDS011;7851;52.260;6.030;2022-11-18T03:13:53;5.6;;;3.4;;
15498;SDS011;7851;52.260;6.030;2022-11-18T03:14:50;4.5;;;3.2;;
15498;SDS011;7851;52.260;6.030;2022-11-18T03:15:50;8.1;;;3.8;;
15498;SDS011;7851;52.260;6.030;2022-11-18T03:16:50;5.1;;;3.5;;
15498;SDS011;7851;52.260;6.030;2022-11-18T03:17:51;4.6;;;3.4;;
15498;SDS011;7851;52.260;6.030;2022-11-18T03:18:51;4.5;;;3.2;;
15498;SDS011;7851;52.260;6.030;2022-11-18T03:19:53;5;;;3.6;;
15498;SDS011;7851;52.260;6.030;2022-11-18T03:20:49;6;;;3.8;;
15498;SDS011;7851;52.260;6.030;2022-11-18T03:21:51;4.6;;;3.2;;
15498;SDS011;7851;52.260;6.030;2022-11-18T03:22:49;3.9;;;3.3;;
15498;SDS011;7851;52.260;6.030;2022-11-18T03:23:50;6.7;;;3.8;;
15498;SDS011;7851;52.260;6.030;2022-11-18T03:24:51;5.6;;;3.5;;
15498;SDS011;7851;52.260;6.030;2022-11-18T03:25:49;6.7;;;3.8;;
15498;SDS011;7851;52.260;6.030;2022-11-18T03:26:49;6.1;;;3.8;;
15498;SDS011;7851;52.260;6.030;2022-11-18T03:27:51;4.9;;;3.5;;
15498;SDS011;7851;52.260;6.030;2022-11-18T03:28:49;6.6;;;3.6;;
15498;SDS011;7851;52.260;6.030;2022-11-18T03:29:51;4.8;;;3.4;;
15498;SDS011;7851;52.260;6.030;2022-11-18T03:30:49;3.8;;;3.3;;
15498;SDS011;7851;52.260;6.030;2022-11-18T03:31:49;5;;;3.2;;
15498;SDS011;7851;52.260;6.030;2022-11-18T03:32:50;6.7;;;3.5;;
15498;SDS011;7851;52.260;6.030;2022-11-18T03:33:51;8.8;;;4;;
15498;SDS011;7851;52.260;6.030;2022-11-18T03:34:49;4.9;;;3.6;;
15498;SDS011;7851;52.260;6.030;2022-11-18T03:35:49;3.8;;;3.5;;
15498;SDS011;7851;52.260;6.030;2022-11-18T03:36:50;4.5;;;3.7;;
15498;SDS011;7851;52.260;6.030;2022-11-18T03:37:49;9.9;;;3.5;;
15498;SDS011;7851;52.260;6.030;2022-11-18T03:38:50;7.4;;;3.6;;
15498;SDS011;7851;52.260;6.030;2022-11-18T03:39:50;4.3;;;3.3;;
15498;SDS011;7851;52.260;6.030;2022-11-18T03:40:51;9.1;;;3.7;;
15498;SDS011;7851;52.260;6.030;2022-11-18T03:41:50;3.6;;;3.3;;
15498;SDS011;7851;52.260;6.030;2022-11-18T03:42:50;4.9;;;3.7;;
15498;SDS011;7851;52.260;6.030;2022-11-18T03:43:50;7.2;;;3.7;;
15498;SDS011;7851;52.260;6.030;2022-11-18T03:44:50;6.5;;;3.5;;
15498;SDS011;7851;52.260;6.030;2022-11-18T03:45:49;6.2;;;3.9;;
15498;SDS011;7851;52.260;6.030;2022-11-18T03:46:50;5.6;;;4;;
15498;SDS011;7851;52.260;6.030;2022-11-18T03:47:50;5.3;;;3.8;;
15498;SDS011;7851;52.260;6.030;2022-11-18T03:48:50;4;;;3.2;;
15498;SDS011;7851;52.260;6.030;2022-11-18T03:49:50;4.5;;;3.8;;
15498;SDS011;7851;52.260;6.030;2022-11-18T03:50:50;6.8;;;4.1;;
15498;SDS011;7851;52.260;6.030;2022-11-18T03:51:50;5.8;;;3.6;;
15498;SDS011;7851;52.260;6.030;2022-11-18T03:52:49;6;;;4;;
15498;SDS011;7851;52.260;6.030;2022-11-18T03:53:50;4.5;;;3.9;;
15498;SDS011;7851;52.260;6.030;2022-11-18T03:54:50;5.1;;;3.4;;
15498;SDS011;7851;52.260;6.030;2022-11-18T03:55:49;8.1;;;4;;
15498;SDS011;7851;52.260;6.030;2022-11-18T03:56:50;5;;;3.6;;
15498;SDS011;7851;52.260;6.030;2022-11-18T03:57:50;4.1;;;3.3;;
15498;SDS011;7851;52.260;6.030;2022-11-18T03:58:51;5;;;3.7;;
15498;SDS011;7851;52.260;6.030;2022-11-18T03:59:50;3.9;;;3.5;;
15498;SDS011;7851;52.260;6.030;2022-11-18T04:00:50;5.8;;;3.6;;
15498;SDS011;7851;52.260;6.030;2022-11-18T04:01:50;7;;;3.6;;
15498;SDS011;7851;52.260;6.030;2022-11-18T04:02:49;6.7;;;3.8;;
15498;SDS011;7851;52.260;6.030;2022-11-18T04:03:49;5.7;;;3.5;;
15498;SDS011;7851;52.260;6.030;2022-11-18T04:04:49;6.1;;;4.1;;
15498;SDS011;7851;52.260;6.030;2022-11-18T04:05:49;7.5;;;3.6;;
15498;SDS011;7851;52.260;6.030;2022-11-18T04:06:49;5.2;;;4.2;;
15498;SDS011;7851;52.260;6.030;2022-11-18T04:07:51;6.3;;;3.6;;
15498;SDS011;7851;52.260;6.030;2022-11-18T04:08:49;5.2;;;4;;
15498;SDS011;7851;52.260;6.030;2022-11-18T04:09:50;5.2;;;3.7;;
15498;SDS011;7851;52.260;6.030;2022-11-18T04:10:49;5;;;3.9;;
15498;SDS011;7851;52.260;6.030;2022-11-18T04:11:50;4.8;;;3.7;;
15498;SDS011;7851;52.260;6.030;2022-11-18T04:12:50;5.4;;;4;;
15498;SDS011;7851;52.260;6.030;2022-11-18T04:13:49;8.4;;;4.4;;
15498;SDS011;7851;52.260;6.030;2022-11-18T04:14:49;5;;;3.5;;
15498;SDS011;7851;52.260;6.030;2022-11-18T04:15:49;9.5;;;3.7;;
15498;SDS011;7851;52.260;6.030;2022-11-18T04:16:50;6.6;;;3.8;;
15498;SDS011;7851;52.260;6.030;2022-11-18T04:17:49;4.7;;;3.5;;
15498;SDS011;7851;52.260;6.030;2022-11-18T04:18:49;9.9;;;3.8;;
15498;SDS011;7851;52.260;6.030;2022-11-18T04:19:49;9.5;;;3.6;;
15498;SDS011;7851;52.260;6.030;2022-11-18T04:20:49;4.7;;;3.2;;
15498;SDS011;7851;52.260;6.030;2022-11-18T04:21:49;7.5;;;3.7;;
15498;SDS011;7851;52.260;6.030;2022-11-18T04:22:49;5.1;;;4.1;;
15498;SDS011;7851;52.260;6.030;2022-11-18T04:23:49;9.4;;;3.6;;
15498;SDS011;7851;52.260;6.030;2022-11-18T04:24:50;7;;;3.8;;
15498;SDS011;7851;52.260;6.030;2022-11-18T04:25:49;8.1;;;3.8;;
15498;SDS011;7851;52.260;6.030;2022-11-18T04:26:49;9.5;;;3.6;;
15498;SDS011;7851;52.260;6.030;2022-11-18T04:27:49;5;;;3.7;;
15498;SDS011;7851;52.260;6.030;2022-11-18T04:28:49;6;;;4;;
15498;SDS011;7851;52.260;6.030;2022-11-18T04:29:49;5.8;;;3.8;;
15498;SDS011;7851;52.260;6.030;2022-11-18T04:30:49;5.1;;;3.9;;
15498;SDS011;7851;52.260;6.030;2022-11-18T04:31:49;4.9;;;3.6;;
15498;SDS011;7851;52.260;6.030;2022-11-18T04:32:49;6.3;;;4.3;;
15498;SDS011;7851;52.260;6.030;2022-11-18T04:33:49;7.1;;;4.3;;
15498;SDS011;7851;52.260;6.030;2022-11-18T04:34:49;7.1;;;4.1;;
15498;SDS011;7851;52.260;6.030;2022-11-18T04:35:49;6.2;;;3.7;;
15498;SDS011;7851;52.260;6.030;2022-11-18T04:36:49;5.7;;;4.3;;
15498;SDS011;7851;52.260;6.030;2022-11-18T04:37:49;6.6;;;3.7;;
15498;SDS011;7851;52.260;6.030;2022-11-18T04:38:49;7.6;;;4.5;;
15498;SDS011;7851;52.260;6.030;2022-11-18T04:39:50;4.1;;;3.7;;
15498;SDS011;7851;52.260;6.030;2022-11-18T04:40:49;5.4;;;3.6;;
15498;SDS011;7851;52.260;6.030;2022-11-18T04:41:49;8.6;;;4.5;;
15498;SDS011;7851;52.260;6.030;2022-11-18T04:42:49;4.2;;;3.6;;
15498;SDS011;7851;52.260;6.030;2022-11-18T04:43:49;4.2;;;3.8;;
15498;SDS011;7851;52.260;6.030;2022-11-18T04:44:49;10.1;;;4.5;;
15498;SDS011;7851;52.260;6.030;2022-11-18T04:45:50;8.2;;;4;;
15498;SDS011;7851;52.260;6.030;2022-11-18T04:46:49;6.8;;;4.1;;
15498;SDS011;7851;52.260;6.030;2022-11-18T04:47:49;7.5;;;4;;
15498;SDS011;7851;52.260;6.030;2022-11-18T04:48:49;6.3;;;4.3;;
15498;SDS011;7851;52.260;6.030;2022-11-18T04:49:49;4.3;;;3.5;;
15498;SDS011;7851;52.260;6.030;2022-11-18T04:50:49;5.4;;;4;;
15498;SDS011;7851;52.260;6.030;2022-11-18T04:51:49;6.8;;;4;;
15498;SDS011;7851;52.260;6.030;2022-11-18T04:52:49;7.1;;;4.2;;
15498;SDS011;7851;52.260;6.030;2022-11-18T04:53:49;5.8;;;4.2;;
15498;SDS011;7851;52.260;6.030;2022-11-18T04:54:49;6.8;;;4.1;;
15498;SDS011;7851;52.260;6.030;2022-11-18T04:55:49;6.5;;;4.5;;
15498;SDS011;7851;52.260;6.030;2022-11-18T04:56:49;8.1;;;4.2;;
15498;SDS011;7851;52.260;6.030;2022-11-18T04:57:49;4.7;;;3.8;;
15498;SDS011;7851;52.260;6.030;2022-11-18T04:58:49;5;;;4.2;;
15498;SDS011;7851;52.260;6.030;2022-11-18T04:59:49;5.5;;;4.1;;
15498;SDS011;7851;52.260;6.030;2022-11-18T05:00:49;5.7;;;3.8;;
15498;SDS011;7851;52.260;6.030;2022-11-18T05:01:49;5.5;;;4.4;;
15498;SDS011;7851;52.260;6.030;2022-11-18T05:02:49;4.7;;;3.8;;
15498;SDS011;7851;52.260;6.030;2022-11-18T05:03:49;5.9;;;4;;
15498;SDS011;7851;52.260;6.030;2022-11-18T05:04:49;6;;;4.2;;
15498;SDS011;7851;52.260;6.030;2022-11-18T05:05:49;5.3;;;4.6;;
15498;SDS011;7851;52.260;6.030;2022-11-18T05:06:49;6;;;4;;
15498;SDS011;7851;52.260;6.030;2022-11-18T05:07:49;7;;;4.8;;
15498;SDS011;7851;52.260;6.030;2022-11-18T05:08:49;7.7;;;4.1;;
15498;SDS011;7851;52.260;6.030;2022-11-18T05:09:49;7.7;;;4.2;;
15498;SDS011;7851;52.260;6.030;2022-11-18T05:10:49;4.6;;;3.9;;
15498;SDS011;7851;52.260;6.030;2022-11-18T05:11:49;4.8;;;4.3;;
15498;SDS011;7851;52.260;6.030;2022-11-18T05:12:49;5.5;;;4.6;;
15498;SDS011;7851;52.260;6.030;2022-11-18T05:13:49;7.6;;;4.1;;
15498;SDS011;7851;52.260;6.030;2022-11-18T05:14:49;4.9;;;4.2;;
15498;SDS011;7851;52.260;6.030;2022-11-18T05:15:49;5.3;;;3.8;;
15498;SDS011;7851;52.260;6.030;2022-11-18T05:16:49;5.1;;;4.6;;
15498;SDS011;7851;52.260;6.030;2022-11-18T05:17:50;6.6;;;3.9;;
15498;SDS011;7851;52.260;6.030;2022-11-18T05:18:49;9.8;;;4.6;;
15498;SDS011;7851;52.260;6.030;2022-11-18T05:19:49;8.6;;;4.3;;
15498;SDS011;7851;52.260;6.030;2022-11-18T05:20:49;4.5;;;3.9;;
15498;SDS011;7851;52.260;6.030;2022-11-18T05:21:49;5.7;;;4.3;;
15498;SDS011;7851;52.260;6.030;2022-11-18T05:22:49;5.1;;;3.9;;
15498;SDS011;7851;52.260;6.030;2022-11-18T05:23:49;7.5;;;4.3;;
15498;SDS011;7851;52.260;6.030;2022-11-18T05:24:49;5.3;;;4.4;;
15498;SDS011;7851;52.260;6.030;2022-11-18T05:25:49;4.5;;;4.1;;
15498;SDS011;7851;52.260;6.030;2022-11-18T05:26:49;9.1;;;4.6;;
15498;SDS011;7851;52.260;6.030;2022-11-18T05:27:49;4.9;;;4.4;;
15498;SDS011;7851;52.260;6.030;2022-11-18T05:28:49;6.2;;;4.5;;
15498;SDS011;7851;52.260;6.030;2022-11-18T05:29:50;5.5;;;4.4;;
15498;SDS011;7851;52.260;6.030;2022-11-18T05:30:49;8;;;4.4;;
15498;SDS011;7851;52.260;6.030;2022-11-18T05:31:49;7.4;;;4.4;;
15498;SDS011;7851;52.260;6.030;2022-11-18T05:32:49;7.1;;;4.8;;
15498;SDS011;7851;52.260;6.030;2022-11-18T05:33:49;6.2;;;4.6;;
15498;SDS011;7851;52.260;6.030;2022-11-18T05:34:49;5;;;4.6;;
15498;SDS011;7851;52.260;6.030;2022-11-18T05:35:49;6.4;;;4.3;;
15498;SDS011;7851;52.260;6.030;2022-11-18T05:36:49;5.1;;;4.6;;
15498;SDS011;7851;52.260;6.030;2022-11-18T05:37:49;6.5;;;4.4;;
15498;SDS011;7851;52.260;6.030;2022-11-18T05:38:49;6.7;;;4.6;;
15498;SDS011;7851;52.260;6.030;2022-11-18T05:39:49;5.3;;;4.2;;
15498;SDS011;7851;52.260;6.030;2022-11-18T05:40:49;4.9;;;4.2;;
15498;SDS011;7851;52.260;6.030;2022-11-18T05:41:49;6.9;;;5.1;;
15498;SDS011;7851;52.260;6.030;2022-11-18T05:42:49;5.1;;;4.5;;
15498;SDS011;7851;52.260;6.030;2022-11-18T05:43:49;7.8;;;4.4;;
15498;SDS011;7851;52.260;6.030;2022-11-18T05:44:49;9.6;;;5.3;;
15498;SDS011;7851;52.260;6.030;2022-11-18T05:45:49;4.5;;;4;;
15498;SDS011;7851;52.260;6.030;2022-11-18T05:46:49;5.6;;;4.6;;
15498;SDS011;7851;52.260;6.030;2022-11-18T05:47:49;8.4;;;4.9;;
15498;SDS011;7851;52.260;6.030;2022-11-18T05:48:49;5.6;;;4.6;;
15498;SDS011;7851;52.260;6.030;2022-11-18T05:49:49;5.6;;;4.8;;
15498;SDS011;7851;52.260;6.030;2022-11-18T05:50:50;5.5;;;4.7;;
15498;SDS011;7851;52.260;6.030;2022-11-18T05:51:49;5.6;;;4.5;;
15498;SDS011;7851;52.260;6.030;2022-11-18T05:52:49;5.5;;;4.4;;
15498;SDS011;7851;52.260;6.030;2022-11-18T05:53:49;5.3;;;4.6;;
15498;SDS011;7851;52.260;6.030;2022-11-18T05:54:49;9;;;4.7;;
15498;SDS011;7851;52.260;6.030;2022-11-18T05:55:50;7.2;;;4.6;;
15498;SDS011;7851;52.260;6.030;2022-11-18T05:56:49;7.8;;;4.3;;
15498;SDS011;7851;52.260;6.030;2022-11-18T05:57:49;6.8;;;5.1;;
15498;SDS011;7851;52.260;6.030;2022-11-18T05:58:49;5.4;;;4.4;;
15498;SDS011;7851;52.260;6.030;2022-11-18T05:59:49;5.2;;;4.7;;
15498;SDS011;7851;52.260;6.030;2022-11-18T06:00:49;7;;;4.8;;
15498;SDS011;7851;52.260;6.030;2022-11-18T06:01:49;8.5;;;4.9;;
15498;SDS011;7851;52.260;6.030;2022-11-18T06:02:49;7.9;;;4.4;;
15498;SDS011;7851;52.260;6.030;2022-11-18T06:03:49;9;;;4.8;;
15498;SDS011;7851;52.260;6.030;2022-11-18T06:04:49;6.6;;;4.8;;
15498;SDS011;7851;52.260;6.030;2022-11-18T06:05:49;9;;;5.1;;
15498;SDS011;7851;52.260;6.030;2022-11-18T06:06:49;5.8;;;5;;
15498;SDS011;7851;52.260;6.030;2022-11-18T06:07:49;7.8;;;4.9;;
15498;SDS011;7851;52.260;6.030;2022-11-18T06:08:50;5.7;;;4.4;;
15498;SDS011;7851;52.260;6.030;2022-11-18T06:09:49;5.4;;;4.9;;
15498;SDS011;7851;52.260;6.030;2022-11-18T06:10:49;7;;;5.1;;
15498;SDS011;7851;52.260;6.030;2022-11-18T06:11:50;8.8;;;5.2;;
15498;SDS011;7851;52.260;6.030;2022-11-18T06:12:49;8.6;;;5.1;;
15498;SDS011;7851;52.260;6.030;2022-11-18T06:13:50;6.3;;;5;;
15498;SDS011;7851;52.260;6.030;2022-11-18T06:14:49;9.9;;;5.6;;
15498;SDS011;7851;52.260;6.030;2022-11-18T06:15:49;7.9;;;5.6;;
15498;SDS011;7851;52.260;6.030;2022-11-18T06:16:50;8.5;;;5.1;;
15498;SDS011;7851;52.260;6.030;2022-11-18T06:17:50;9.4;;;5.6;;
15498;SDS011;7851;52.260;6.030;2022-11-18T06:18:49;7.1;;;5.3;;
15498;SDS011;7851;52.260;6.030;2022-11-18T06:19:49;8.1;;;5;;
15498;SDS011;7851;52.260;6.030;2022-11-18T06:20:49;7.9;;;5.2;;
15498;SDS011;7851;52.260;6.030;2022-11-18T06:21:49;8.5;;;5.2;;
15498;SDS011;7851;52.260;6.030;2022-11-18T06:22:49;6.9;;;5.2;;
15498;SDS011;7851;52.260;6.030;2022-11-18T06:23:49;12.3;;;5.2;;